sensor_id;sensor_type;location;lat;lon;timestamp;P1;durP1;ratioP1;P2;durP2;ratioP2
49980;SDS011;35871;51.594;7.138;2022-08-18T06:22:16;58.50;;;43.20;;
49980;SDS011;35871;51.594;7.138;2022-08-18T09:30:44;22.88;;;20.58;;
49980;SDS011;35871;51.594;7.138;2022-08-18T09:35:50;23.70;;;20.83;;
49980;SDS011;35871;51.594;7.138;2022-08-18T09:40:55;23.80;;;20.63;;
49980;SDS011;35871;51.594;7.138;2022-08-18T09:46:48;19.98;;;17.98;;
49980;SDS011;35871;51.594;7.138;2022-08-18T09:51:37;23.08;;;20.63;;
49980;SDS011;35871;51.594;7.138;2022-08-18T10:01:49;16.50;;;14.80;;
49980;SDS011;35871;51.594;7.138;2022-08-18T10:06:50;15.52;;;14.02;;
49980;SDS011;35871;51.594;7.138;2022-08-18T10:17:17;16.15;;;14.65;;
49980;SDS011;35871;51.594;7.138;2022-08-18T10:28:01;21.35;;;19.23;;
49980;SDS011;35871;51.594;7.138;2022-08-18T10:33:05;16.10;;;12.55;;
49980;SDS011;35871;51.594;7.138;2022-08-18T10:43:17;10.68;;;9.60;;
49980;SDS011;35871;51.594;7.138;2022-08-18T10:48:23;11.77;;;9.02;;
49980;SDS011;35871;51.594;7.138;2022-08-18T10:53:38;10.02;;;9.00;;
49980;SDS011;35871;51.594;7.138;2022-08-18T10:58:51;8.93;;;8.13;;
49980;SDS011;35871;51.594;7.138;2022-08-18T11:08:58;8.15;;;6.72;;
49980;SDS011;35871;51.594;7.138;2022-08-18T11:19:20;12.80;;;10.88;;
49980;SDS011;35871;51.594;7.138;2022-08-18T11:24:31;7.40;;;6.80;;
49980;SDS011;35871;51.594;7.138;2022-08-18T11:29:35;9.85;;;8.95;;
49980;SDS011;35871;51.594;7.138;2022-08-18T11:34:41;8.18;;;7.18;;
49980;SDS011;35871;51.594;7.138;2022-08-18T11:39:47;11.25;;;10.25;;
49980;SDS011;35871;51.594;7.138;2022-08-18T11:44:50;8.52;;;7.75;;
49980;SDS011;35871;51.594;7.138;2022-08-18T11:49:52;7.20;;;6.50;;
49980;SDS011;35871;51.594;7.138;2022-08-18T11:55:00;11.32;;;9.38;;
49980;SDS011;35871;51.594;7.138;2022-08-18T12:00:34;13.90;;;7.22;;
49980;SDS011;35871;51.594;7.138;2022-08-18T12:05:23;8.13;;;7.30;;
49980;SDS011;35871;51.594;7.138;2022-08-18T12:10:26;9.80;;;7.50;;
49980;SDS011;35871;51.594;7.138;2022-08-18T12:15:30;7.90;;;7.20;;
49980;SDS011;35871;51.594;7.138;2022-08-18T12:26:13;8.45;;;7.75;;
49980;SDS011;35871;51.594;7.138;2022-08-18T12:31:14;12.15;;;11.05;;
49980;SDS011;35871;51.594;7.138;2022-08-18T12:36:16;9.57;;;8.77;;
49980;SDS011;35871;51.594;7.138;2022-08-18T12:41:17;10.05;;;9.18;;
49980;SDS011;35871;51.594;7.138;2022-08-18T12:46:19;14.40;;;13.10;;
49980;SDS011;35871;51.594;7.138;2022-08-18T12:51:20;12.65;;;11.57;;
49980;SDS011;35871;51.594;7.138;2022-08-18T12:56:25;11.88;;;10.77;;
49980;SDS011;35871;51.594;7.138;2022-08-18T13:01:29;12.35;;;11.18;;
49980;SDS011;35871;51.594;7.138;2022-08-18T13:06:31;11.50;;;10.50;;
49980;SDS011;35871;51.594;7.138;2022-08-18T13:11:33;12.23;;;10.70;;
49980;SDS011;35871;51.594;7.138;2022-08-18T13:16:47;11.90;;;10.80;;
49980;SDS011;35871;51.594;7.138;2022-08-18T13:21:48;9.77;;;8.88;;
49980;SDS011;35871;51.594;7.138;2022-08-18T13:26:50;9.98;;;8.52;;
49980;SDS011;35871;51.594;7.138;2022-08-18T13:31:55;11.07;;;10.07;;
49980;SDS011;35871;51.594;7.138;2022-08-18T13:36:57;9.07;;;8.05;;
49980;SDS011;35871;51.594;7.138;2022-08-18T13:41:58;9.20;;;8.30;;
49980;SDS011;35871;51.594;7.138;2022-08-18T13:47:02;8.75;;;7.90;;
49980;SDS011;35871;51.594;7.138;2022-08-18T13:52:10;7.75;;;7.05;;
49980;SDS011;35871;51.594;7.138;2022-08-18T13:57:12;7.53;;;6.80;;
49980;SDS011;35871;51.594;7.138;2022-08-18T14:02:13;7.95;;;7.13;;
49980;SDS011;35871;51.594;7.138;2022-08-18T14:07:14;20.85;;;17.55;;
49980;SDS011;35871;51.594;7.138;2022-08-18T14:12:21;8.32;;;7.53;;
49980;SDS011;35871;51.594;7.138;2022-08-18T14:17:23;7.40;;;6.43;;
49980;SDS011;35871;51.594;7.138;2022-08-18T14:22:25;6.97;;;6.28;;
49980;SDS011;35871;51.594;7.138;2022-08-18T14:27:44;5.40;;;4.90;;
49980;SDS011;35871;51.594;7.138;2022-08-18T14:32:45;5.90;;;5.30;;
49980;SDS011;35871;51.594;7.138;2022-08-18T14:37:47;6.93;;;5.95;;
49980;SDS011;35871;51.594;7.138;2022-08-18T14:42:48;6.75;;;6.03;;
49980;SDS011;35871;51.594;7.138;2022-08-18T14:47:49;6.53;;;5.97;;
49980;SDS011;35871;51.594;7.138;2022-08-18T14:52:52;6.70;;;5.45;;
49980;SDS011;35871;51.594;7.138;2022-08-18T14:57:53;7.38;;;5.57;;
49980;SDS011;35871;51.594;7.138;2022-08-18T15:02:55;5.88;;;5.32;;
49980;SDS011;35871;51.594;7.138;2022-08-18T15:07:56;10.38;;;6.30;;
49980;SDS011;35871;51.594;7.138;2022-08-18T15:12:57;7.32;;;5.90;;
49980;SDS011;35871;51.594;7.138;2022-08-18T15:17:59;7.60;;;6.97;;
49980;SDS011;35871;51.594;7.138;2022-08-18T15:23:01;7.43;;;6.22;;
49980;SDS011;35871;51.594;7.138;2022-08-18T15:28:22;7.07;;;6.35;;
49980;SDS011;35871;51.594;7.138;2022-08-18T15:33:26;6.15;;;5.65;;
49980;SDS011;35871;51.594;7.138;2022-08-18T15:38:28;5.60;;;5.18;;
49980;SDS011;35871;51.594;7.138;2022-08-18T15:43:30;5.90;;;5.40;;
49980;SDS011;35871;51.594;7.138;2022-08-18T15:48:31;5.80;;;5.20;;
49980;SDS011;35871;51.594;7.138;2022-08-18T15:53:32;7.60;;;6.80;;
49980;SDS011;35871;51.594;7.138;2022-08-18T15:58:33;7.20;;;5.65;;
49980;SDS011;35871;51.594;7.138;2022-08-18T16:03:35;5.82;;;5.32;;
49980;SDS011;35871;51.594;7.138;2022-08-18T16:08:37;5.15;;;4.65;;
49980;SDS011;35871;51.594;7.138;2022-08-18T16:13:38;5.65;;;5.13;;
49980;SDS011;35871;51.594;7.138;2022-08-18T16:18:39;5.93;;;5.03;;
49980;SDS011;35871;51.594;7.138;2022-08-18T16:23:42;5.22;;;4.20;;
49980;SDS011;35871;51.594;7.138;2022-08-18T16:28:44;5.93;;;4.55;;
49980;SDS011;35871;51.594;7.138;2022-08-18T16:33:45;5.00;;;4.55;;
49980;SDS011;35871;51.594;7.138;2022-08-18T16:38:53;6.45;;;4.80;;
49980;SDS011;35871;51.594;7.138;2022-08-18T16:44:02;5.22;;;4.07;;
49980;SDS011;35871;51.594;7.138;2022-08-18T16:49:18;5.18;;;4.60;;
49980;SDS011;35871;51.594;7.138;2022-08-18T16:54:21;8.57;;;7.78;;
49980;SDS011;35871;51.594;7.138;2022-08-18T16:59:32;4.88;;;4.45;;
49980;SDS011;35871;51.594;7.138;2022-08-18T17:04:52;5.30;;;4.70;;
49980;SDS011;35871;51.594;7.138;2022-08-18T17:10:03;4.85;;;4.10;;
49980;SDS011;35871;51.594;7.138;2022-08-18T17:15:26;5.05;;;4.55;;
49980;SDS011;35871;51.594;7.138;2022-08-18T17:20:34;4.25;;;3.85;;
49980;SDS011;35871;51.594;7.138;2022-08-18T17:25:37;4.07;;;3.75;;
49980;SDS011;35871;51.594;7.138;2022-08-18T17:30:48;4.30;;;3.90;;
49980;SDS011;35871;51.594;7.138;2022-08-18T17:36:07;4.80;;;4.18;;
49980;SDS011;35871;51.594;7.138;2022-08-18T17:41:12;4.30;;;3.90;;
49980;SDS011;35871;51.594;7.138;2022-08-18T17:46:28;5.45;;;4.20;;
49980;SDS011;35871;51.594;7.138;2022-08-18T17:51:36;5.40;;;4.22;;
49980;SDS011;35871;51.594;7.138;2022-08-18T17:56:47;4.97;;;3.67;;
49980;SDS011;35871;51.594;7.138;2022-08-18T18:02:10;5.18;;;4.00;;
49980;SDS011;35871;51.594;7.138;2022-08-18T18:07:23;6.55;;;4.25;;
49980;SDS011;35871;51.594;7.138;2022-08-18T18:12:26;4.20;;;3.80;;
49980;SDS011;35871;51.594;7.138;2022-08-18T18:17:31;4.85;;;3.50;;
